Time;durP1;ratioP1;P1;durP2;ratioP2;P2;SDS_P1;SDS_P2;PMS_P1;PMS_P2;Temp;Humidity;BMP_temperature;BMP_pressure;BME280_temperature;BME280_humidity;BME280_pressure;Samples;Min_cycle;Max_cycle;Signal;HPM_P1;HPM_P2
2022/05/03 00:14:26;;;;;;;6.53;4.30;;;;;;;19.52;28.81;101344.97;5057579;28;20044;-70
2022/05/03 00:16:54;;;;;;;7.00;4.13;;;;;;;19.48;28.75;101338.88;5056674;28;20053;-70
2022/05/03 00:19:20;;;;;;;6.50;4.38;;;;;;;19.47;28.64;101336.25;5068677;28;20049;-70
2022/05/03 00:21:47;;;;;;;6.05;4.32;;;;;;;19.46;28.92;101345.50;5061919;28;20098;-70
2022/05/03 00:24:15;;;;;;;5.53;4.07;;;;;;;19.47;28.52;101337.13;5071400;28;20057;-70
2022/05/03 00:26:42;;;;;;;6.57;4.18;;;;;;;19.46;28.60;101334.50;5061038;28;20044;-70
2022/05/03 00:29:10;;;;;;;6.57;4.22;;;;;;;19.45;28.69;101338.25;5052623;28;20094;-70
2022/05/03 00:31:37;;;;;;;6.72;4.20;;;;;;;19.43;29.04;101332.06;5067112;28;20338;-69
2022/05/03 00:34:05;;;;;;;6.35;3.95;;;;;;;19.42;28.98;101328.44;5053444;28;20067;-70
2022/05/03 00:36:32;;;;;;;6.03;4.35;;;;;;;19.41;28.97;101325.81;5090603;28;20105;-69
2022/05/03 00:38:58;;;;;;;5.90;4.00;;;;;;;19.39;28.92;101317.69;5053591;28;20045;-70
2022/05/03 00:41:31;;;;;;;5.60;4.10;;;;;;;19.42;29.05;101328.44;5058641;28;20060;-70
2022/05/03 00:47:20;;;;;;;5.50;3.83;;;;;;;19.32;28.84;101320.19;5064993;28;20074;-69
2022/05/03 00:49:59;;;;;;;5.25;3.97;;;;;;;19.33;29.23;101323.81;5064498;28;20045;-70
2022/05/03 00:52:41;;;;;;;6.32;4.10;;;;;;;19.31;29.32;101321.19;5065492;28;20072;-70
2022/05/03 00:55:20;;;;;;;5.95;3.65;;;;;;;19.29;29.35;101325.09;5069151;28;20052;-70
2022/05/03 00:58:28;;;;;;;5.57;3.65;;;;;;;19.23;29.41;101314.69;5083417;28;20056;-70
2022/05/03 01:01:22;;;;;;;6.00;3.92;;;;;;;19.20;29.50;101317.72;5061359;28;20504;-70
2022/05/03 01:03:55;;;;;;;8.30;4.50;;;;;;;19.20;29.56;101315.84;5075789;28;20534;-70
2022/05/03 01:06:41;;;;;;;5.75;4.10;;;;;;;19.16;29.52;101325.44;5085007;28;20056;-70
2022/05/03 01:09:09;;;;;;;5.45;3.88;;;;;;;19.14;29.58;101312.81;5080845;28;20121;-69
2022/05/03 01:11:36;;;;;;;6.57;3.88;;;;;;;19.12;28.71;101315.72;5064061;28;20372;-69
2022/05/03 01:14:23;;;;;;;6.18;3.70;;;;;;;19.14;29.43;101313.69;5077910;28;20045;-70
2022/05/03 01:17:05;;;;;;;5.28;3.78;;;;;;;19.12;29.73;101320.34;5059894;28;20460;-70
2022/05/03 01:19:54;;;;;;;5.73;3.73;;;;;;;19.05;29.51;101316.44;5085445;28;20049;-69
2022/05/03 01:22:42;;;;;;;6.70;3.92;;;;;;;19.07;29.80;101319.94;5057375;28;20348;-70
2022/05/03 01:25:24;;;;;;;5.43;3.53;;;;;;;19.05;29.52;101320.06;5077766;28;20498;-69
2022/05/03 01:28:21;;;;;;;4.90;3.58;;;;;;;19.05;29.89;101319.19;5084455;28;20044;-69
2022/05/03 01:30:50;;;;;;;5.82;4.05;;;;;;;18.97;29.29;101320.78;5062876;28;20048;-69
2022/05/03 01:33:24;;;;;;;5.88;4.03;;;;;;;18.99;29.70;101320.66;5062430;28;20029;-70
2022/05/03 01:35:56;;;;;;;5.38;3.72;;;;;;;18.98;29.68;101335.44;5076685;28;20048;-70
2022/05/03 01:38:56;;;;;;;7.30;4.32;;;;;;;18.93;30.08;101330.38;5072829;28;20033;-71
2022/05/03 01:41:42;;;;;;;5.15;3.35;;;;;;;18.94;30.01;101334.84;5050783;28;20079;-71
2022/05/03 01:44:24;;;;;;;6.35;3.58;;;;;;;18.92;29.90;101328.63;5061506;28;20040;-70
2022/05/03 01:46:58;;;;;;;5.68;3.75;;;;;;;18.90;29.87;101330.66;5087604;28;20044;-70
2022/05/03 01:52:38;;;;;;;5.90;3.78;;;;;;;18.83;30.12;101320.38;5068626;28;20060;-71
2022/05/03 01:55:23;;;;;;;6.75;4.22;;;;;;;18.79;29.71;101318.91;5103482;28;20082;-70
2022/05/03 01:58:19;;;;;;;5.55;3.65;;;;;;;18.78;30.22;101330.91;5061839;28;20072;-71
2022/05/03 02:01:01;;;;;;;5.70;3.55;;;;;;;18.79;30.07;101324.41;5066655;28;20048;-70
2022/05/03 02:03:50;;;;;;;5.15;3.60;;;;;;;18.75;30.20;101329.34;5071659;28;20410;-70
2022/05/03 02:06:59;;;;;;;6.15;3.75;;;;;;;18.71;30.01;101329.75;5080195;28;20051;-71
2022/05/03 02:09:39;;;;;;;6.20;3.88;;;;;;;18.70;30.19;101326.13;5065798;28;20052;-70
2022/05/03 02:12:14;;;;;;;5.25;3.42;;;;;;;18.71;30.25;101322.38;5065343;28;20124;-70
2022/05/03 02:14:55;;;;;;;4.70;3.50;;;;;;;18.68;30.11;101319.94;5070511;28;20048;-70
2022/05/03 02:17:49;;;;;;;5.82;3.58;;;;;;;18.66;30.14;101321.06;5070557;28;20089;-70
2022/05/03 02:20:30;;;;;;;5.88;3.60;;;;;;;18.65;30.14;101319.34;5063080;28;20044;-70
2022/05/03 02:23:06;;;;;;;5.82;3.67;;;;;;;18.61;29.87;101324.28;5050388;28;20413;-71
2022/05/03 02:25:36;;;;;;;4.70;3.40;;;;;;;18.56;29.90;101313.69;5080963;28;20508;-70
2022/05/03 02:28:24;;;;;;;5.13;3.53;;;;;;;18.57;29.98;101314.56;5093715;28;20044;-70
2022/05/03 02:30:51;;;;;;;5.88;3.83;;;;;;;18.54;30.05;101315.66;5061179;28;20310;-70
2022/05/03 02:34:03;;;;;;;5.72;3.50;;;;;;;18.49;30.61;101311.63;5063792;28;20044;-70
2022/05/03 02:36:37;;;;;;;5.38;3.45;;;;;;;18.51;30.17;101318.72;5026143;28;20049;-70
2022/05/03 02:39:09;;;;;;;7.75;4.43;;;;;;;18.50;30.31;101318.84;5074914;28;20097;-71
2022/05/03 02:41:40;;;;;;;5.70;3.45;;;;;;;18.47;30.64;101313.63;5078851;28;20113;-71
2022/05/03 02:44:07;;;;;;;5.35;3.88;;;;;;;18.44;30.45;101319.44;5065691;28;20435;-71
2022/05/03 02:47:03;;;;;;;6.22;4.07;;;;;;;18.43;30.63;101317.69;5061454;28;20506;-69
2022/05/03 02:49:56;;;;;;;5.68;3.80;;;;;;;18.41;30.61;101319.72;5063036;28;20539;-70
2022/05/03 02:52:25;;;;;;;6.30;3.63;;;;;;;18.36;30.47;101306.41;5059341;28;20460;-69
2022/05/03 02:55:08;;;;;;;6.13;3.90;;;;;;;18.37;30.51;101308.09;5078520;28;20485;-69
2022/05/03 02:57:46;;;;;;;5.50;3.50;;;;;;;18.34;30.86;101310.28;5083572;28;20049;-69
2022/05/03 03:03:18;;;;;;;6.63;3.92;;;;;;;18.28;30.73;101311.72;5067988;28;20048;-69
2022/05/03 03:05:58;;;;;;;5.70;3.83;;;;;;;18.28;31.01;101317.22;5084532;28;20056;-69
2022/05/03 03:08:27;;;;;;;6.25;3.80;;;;;;;18.24;30.65;101313.88;5078411;28;20049;-69
2022/05/03 03:11:01;;;;;;;5.90;3.88;;;;;;;18.25;30.78;101318.38;5080738;28;20451;-69
2022/05/03 03:13:56;;;;;;;6.15;3.90;;;;;;;18.21;30.76;101314.16;5066459;28;20037;-69
2022/05/03 03:16:31;;;;;;;5.70;3.90;;;;;;;18.20;31.00;101306.91;5072068;28;20049;-69
2022/05/03 03:18:59;;;;;;;5.28;3.60;;;;;;;18.17;30.35;101315.47;5051001;28;20537;-69
2022/05/03 03:21:34;;;;;;;6.75;3.70;;;;;;;18.18;30.97;101308.09;5056119;28;20114;-69
2022/05/03 03:24:01;;;;;;;5.78;3.95;;;;;;;18.14;30.90;101309.34;5080768;28;20052;-69
2022/05/03 03:26:30;;;;;;;6.43;3.75;;;;;;;18.14;30.62;101312.97;5063933;28;20453;-69
2022/05/03 03:29:00;;;;;;;5.18;3.42;;;;;;;18.12;30.79;101311.38;5082478;28;20409;-69
2022/05/03 03:31:30;;;;;;;5.57;3.65;;;;;;;18.10;30.91;101305.16;5056763;28;20106;-69
2022/05/03 03:33:58;;;;;;;5.13;3.78;;;;;;;18.08;30.86;101305.31;5069243;28;20048;-70
2022/05/03 03:36:26;;;;;;;5.95;3.75;;;;;;;18.08;30.45;101315.41;5061026;28;20555;-69
2022/05/03 03:38:54;;;;;;;5.53;3.65;;;;;;;18.05;30.72;101305.56;5059825;28;20122;-69
2022/05/03 03:41:20;;;;;;;5.78;3.85;;;;;;;18.03;30.55;101314.97;5057363;28;20391;-69
2022/05/03 03:43:47;;;;;;;6.85;4.18;;;;;;;18.03;30.63;101309.50;5074036;28;20044;-69
2022/05/03 03:46:13;;;;;;;5.75;3.55;;;;;;;17.99;30.64;101300.63;5062922;28;20052;-69
2022/05/03 03:48:40;;;;;;;6.20;3.83;;;;;;;17.99;31.00;101306.13;5067034;28;20055;-69
2022/05/03 03:51:08;;;;;;;6.70;4.05;;;;;;;17.96;30.73;101306.41;5063787;28;20457;-69
2022/05/03 03:53:36;;;;;;;5.45;3.92;;;;;;;17.95;31.22;101310.19;5066999;28;20053;-69
2022/05/03 03:56:04;;;;;;;5.72;3.53;;;;;;;17.92;31.10;101304.97;5062963;28;20421;-69
2022/05/03 03:58:31;;;;;;;6.30;3.83;;;;;;;17.91;31.11;101310.59;5065598;28;20067;-69
2022/05/03 04:00:58;;;;;;;6.30;3.97;;;;;;;17.90;31.11;101308.84;5061526;28;20448;-69
2022/05/03 04:03:26;;;;;;;5.93;3.65;;;;;;;17.87;31.10;101310.84;5064604;28;20055;-69
2022/05/03 04:05:53;;;;;;;6.82;3.75;;;;;;;17.84;30.84;101316.63;5082250;28;20472;-69
2022/05/03 04:08:20;;;;;;;5.38;3.63;;;;;;;17.83;31.03;101311.28;5070961;28;20048;-69
2022/05/03 04:10:49;;;;;;;5.97;3.97;;;;;;;17.79;31.02;101309.81;5062798;28;20052;-69
2022/05/03 04:13:16;;;;;;;5.50;3.78;;;;;;;17.78;30.80;101310.84;5077630;28;20048;-68
2022/05/03 04:15:43;;;;;;;5.82;4.00;;;;;;;17.76;31.12;101310.97;5066865;28;20053;-71
2022/05/03 04:18:10;;;;;;;6.07;3.95;;;;;;;17.75;31.06;101319.34;5074997;28;20102;-70
2022/05/03 04:20:37;;;;;;;6.80;3.97;;;;;;;17.72;30.99;101317.72;5063241;28;20493;-70
2022/05/03 04:23:03;;;;;;;5.57;3.92;;;;;;;17.71;31.06;101315.09;5051982;28;20114;-71
2022/05/03 04:25:31;;;;;;;5.93;3.67;;;;;;;17.69;31.18;101320.75;5083536;28;20040;-70
2022/05/03 04:27:58;;;;;;;6.28;3.92;;;;;;;17.67;31.32;101321.91;5070566;28;20051;-70
2022/05/03 04:30:25;;;;;;;5.25;3.58;;;;;;;17.66;31.15;101321.03;5064359;28;20102;-70
2022/05/03 04:32:57;;;;;;;6.60;4.10;;;;;;;17.61;31.38;101326.03;5060399;28;20070;-70
2022/05/03 04:35:23;;;;;;;6.00;3.80;;;;;;;17.60;31.50;101335.28;5055382;28;20125;-70
2022/05/03 04:37:50;;;;;;;5.65;3.85;;;;;;;17.59;31.50;101335.41;5059282;28;20098;-70
2022/05/03 04:40:16;;;;;;;5.45;3.60;;;;;;;17.58;31.70;101339.16;5066831;28;20049;-70
2022/05/03 04:42:44;;;;;;;6.40;4.03;;;;;;;17.54;31.32;101327.59;5057815;28;20045;-70
2022/05/03 04:45:11;;;;;;;5.78;3.72;;;;;;;17.53;31.62;101335.97;5058747;28;20044;-70
2022/05/03 04:47:38;;;;;;;6.63;4.05;;;;;;;17.50;31.47;101337.97;5076947;28;20048;-70
2022/05/03 04:50:05;;;;;;;5.28;3.60;;;;;;;17.51;31.72;101341.59;5073221;28;20053;-70
2022/05/03 04:52:32;;;;;;;4.50;3.42;;;;;;;17.49;31.79;101344.44;5069746;28;20398;-70
2022/05/03 04:54:59;;;;;;;6.05;3.85;;;;;;;17.48;31.86;101350.06;5054660;28;20048;-71
2022/05/03 04:57:25;;;;;;;6.20;3.70;;;;;;;17.48;31.72;101350.06;5056432;28;20132;-70
2022/05/03 05:00:10;;;;;;;6.32;3.55;;;;;;;17.46;31.74;101357.56;5055723;28;20106;-70
2022/05/03 05:02:37;;;;;;;5.47;3.55;;;;;;;17.45;31.88;101362.22;5053528;28;20512;-70
2022/05/03 05:05:04;;;;;;;5.38;3.55;;;;;;;17.46;31.71;101363.06;5052778;28;20122;-70
2022/05/03 05:07:31;;;;;;;5.38;3.67;;;;;;;17.46;31.78;101363.06;5054494;28;20048;-70
2022/05/03 05:12:43;;;;;;;6.35;4.00;;;;;;;17.44;31.87;101357.72;5069639;28;20048;-70
2022/05/03 05:15:10;;;;;;;5.78;3.67;;;;;;;17.45;31.76;101359.47;5086134;28;20091;-70
2022/05/03 05:17:37;;;;;;;5.60;3.80;;;;;;;17.46;31.85;101360.31;5052208;28;20280;-70
2022/05/03 05:20:04;;;;;;;5.40;3.63;;;;;;;17.47;31.93;101351.06;5077053;28;20513;-70
2022/05/03 05:22:32;;;;;;;6.57;3.78;;;;;;;17.48;32.03;101352.81;5061417;28;20052;-70
2022/05/03 05:24:58;;;;;;;5.38;3.42;;;;;;;17.50;32.05;101351.69;5052312;28;20048;-70
2022/05/03 05:27:25;;;;;;;5.63;3.63;;;;;;;17.55;31.84;101358.63;5082921;28;20353;-70
2022/05/03 05:29:52;;;;;;;5.78;3.50;;;;;;;17.59;32.01;101357.38;5077738;28;20056;-70
2022/05/03 05:32:19;;;;;;;5.90;3.67;;;;;;;17.65;31.83;101370.59;5081316;28;20114;-70
2022/05/03 05:34:45;;;;;;;6.35;3.28;;;;;;;17.70;31.94;101363.72;5055581;28;20114;-70
2022/05/03 05:37:12;;;;;;;5.97;3.28;;;;;;;17.79;31.94;101370.22;5068448;28;20049;-70
2022/05/03 05:39:39;;;;;;;5.68;3.55;;;;;;;17.85;32.08;101373.31;5065814;28;20533;-70
2022/05/03 05:42:06;;;;;;;7.38;3.47;;;;;;;17.93;32.06;101380.00;5052477;28;20464;-70
2022/05/03 05:44:32;;;;;;;5.80;3.38;;;;;;;17.99;31.70;101377.56;5053553;28;20648;-69
2022/05/03 05:46:59;;;;;;;5.18;3.40;;;;;;;18.07;31.94;101379.63;5081024;28;20044;-70
2022/05/03 05:49:29;;;;;;;5.32;3.25;;;;;;;18.15;31.10;101382.56;5057372;28;20041;-70
2022/05/03 05:53:31;;;;;;;5.93;3.50;;;;;;;18.18;31.38;101379.53;5062868;28;20052;-70
2022/05/03 05:54:42;;;;;;;5.47;3.80;;;;;;;18.22;31.44;101376.34;5051660;28;20049;-69
2022/05/03 05:57:09;;;;;;;5.30;3.47;;;;;;;18.29;30.89;101381.28;5065614;28;20049;-70
2022/05/03 05:59:36;;;;;;;5.63;3.42;;;;;;;18.32;31.26;101381.91;5074552;28;20091;-70
2022/05/03 06:02:02;;;;;;;5.88;3.08;;;;;;;18.38;31.27;101383.22;5067743;28;20045;-70
2022/05/03 06:04:29;;;;;;;5.90;3.88;;;;;;;18.40;30.87;101379.31;5053685;28;20128;-70
2022/05/03 06:06:56;;;;;;;6.03;3.50;;;;;;;18.44;31.12;101379.94;5050855;28;20574;-70
2022/05/03 06:09:23;;;;;;;5.50;3.25;;;;;;;18.46;30.70;101380.63;5066099;28;20068;-69
2022/05/03 06:11:50;;;;;;;4.60;3.25;;;;;;;18.48;30.88;101385.00;5056943;28;20044;-69
2022/05/03 06:14:16;;;;;;;5.68;3.60;;;;;;;18.50;30.48;101377.47;5053531;28;20052;-70
2022/05/03 06:16:57;;;;;;;4.88;3.25;;;;;;;18.55;30.25;101383.41;5084408;28;20052;-70
2022/05/03 06:19:24;;;;;;;7.85;3.60;;;;;;;18.53;30.44;101385.41;5067253;28;20052;-70
2022/05/03 06:21:51;;;;;;;7.68;3.63;;;;;;;18.57;30.40;101386.06;5056441;28;20052;-70
2022/05/03 06:24:17;;;;;;;5.20;3.25;;;;;;;18.59;30.24;101395.03;5067171;28;20041;-70
2022/05/03 06:26:45;;;;;;;5.47;3.28;;;;;;;18.61;30.54;101390.28;5084423;28;20049;-68
2022/05/03 06:29:11;;;;;;;5.45;3.20;;;;;;;18.66;30.49;101390.72;5055900;28;20049;-69
2022/05/03 06:31:39;;;;;;;5.05;3.17;;;;;;;18.71;30.33;101391.16;5063288;28;20578;-68
2022/05/03 06:34:06;;;;;;;5.72;3.40;;;;;;;18.78;30.40;101399.69;5052024;28;20083;-68
2022/05/03 06:36:35;;;;;;;5.45;3.03;;;;;;;18.84;30.27;101404.66;5061003;28;20102;-68
2022/05/03 06:39:02;;;;;;;4.60;3.00;;;;;;;18.93;30.59;101401.03;5065352;28;20048;-68
2022/05/03 06:41:29;;;;;;;5.53;3.03;;;;;;;19.00;30.27;101405.84;5049772;28;20052;-68
2022/05/03 06:43:59;;;;;;;4.35;2.92;;;;;;;19.10;30.02;101407.72;5064602;28;20098;-68
2022/05/03 06:46:25;;;;;;;3.95;2.75;;;;;;;19.21;30.30;101402.06;5058930;28;20048;-69
2022/05/03 06:48:53;;;;;;;3.88;2.50;;;;;;;19.30;29.92;101398.44;5067270;28;20523;-68
2022/05/03 06:51:20;;;;;;;4.65;2.80;;;;;;;19.41;29.66;101400.19;5069900;28;20090;-68
2022/05/03 06:53:47;;;;;;;5.60;2.97;;;;;;;19.52;29.76;101405.56;5069889;28;20452;-69
2022/05/03 06:56:17;;;;;;;4.93;2.63;;;;;;;19.62;29.30;101411.91;5093152;28;20113;-70
2022/05/03 06:58:44;;;;;;;3.97;2.50;;;;;;;19.70;29.67;101418.41;5077255;28;20052;-69
2022/05/03 07:01:13;;;;;;;4.32;2.83;;;;;;;19.83;28.97;101422.75;5058657;28;20795;-70
2022/05/03 07:03:41;;;;;;;6.40;3.45;;;;;;;19.91;29.39;101417.38;5070066;28;20056;-71
2022/05/03 07:06:08;;;;;;;5.43;3.08;;;;;;;19.99;28.89;101417.50;5076938;28;20056;-70
2022/05/03 07:08:36;;;;;;;5.25;2.53;;;;;;;20.07;28.96;101418.50;5069092;28;20044;-70
2022/05/03 07:11:03;;;;;;;6.50;2.92;;;;;;;20.14;28.45;101425.13;5088893;28;20052;-72
2022/05/03 07:13:30;;;;;;;4.28;2.70;;;;;;;20.22;28.29;101423.50;5075348;28;20056;-70
2022/05/03 07:15:57;;;;;;;4.40;2.70;;;;;;;20.28;27.83;101414.63;5088647;28;20098;-71
2022/05/03 07:23:55;;;;;;;3.97;2.67;;;;;;;20.41;27.66;101424.34;5072017;28;20056;-71
2022/05/03 07:26:21;;;;;;;4.40;2.72;;;;;;;20.48;27.82;101422.72;5075175;28;20472;-71
2022/05/03 07:28:51;;;;;;;5.22;2.80;;;;;;;20.52;27.73;101426.88;5080654;28;20056;-71
2022/05/03 07:31:19;;;;;;;4.47;2.80;;;;;;;20.61;27.58;101427.84;5069089;28;20052;-70
2022/05/03 07:33:47;;;;;;;5.10;2.70;;;;;;;20.66;27.85;101428.28;5067600;28;20052;-70
2022/05/03 07:36:14;;;;;;;4.38;2.85;;;;;;;20.73;27.79;101429.41;5063850;28;20056;-70
2022/05/03 07:38:41;;;;;;;5.80;3.05;;;;;;;20.81;27.81;101431.38;5060838;28;20055;-70
2022/05/03 07:41:08;;;;;;;5.18;3.05;;;;;;;20.87;27.53;101431.63;5053784;28;20121;-70
2022/05/03 07:43:35;;;;;;;4.00;2.50;;;;;;;20.95;27.49;101430.84;5053678;28;20049;-70
2022/05/03 07:46:02;;;;;;;5.32;2.97;;;;;;;20.99;27.22;101429.53;5061219;28;20056;-71
2022/05/03 07:48:29;;;;;;;5.88;2.90;;;;;;;21.03;26.97;101435.59;5053827;28;20052;-71
2022/05/03 07:50:55;;;;;;;5.13;3.30;;;;;;;21.04;26.35;101435.44;5061977;28;20464;-71
2022/05/03 07:53:23;;;;;;;4.75;3.15;;;;;;;21.10;26.64;101431.16;5055531;28;20044;-71
2022/05/03 07:55:50;;;;;;;4.07;2.50;;;;;;;21.13;26.18;101428.09;5061319;28;20049;-71
2022/05/03 07:58:21;;;;;;;5.03;2.90;;;;;;;21.16;26.24;101431.44;5084573;28;20048;-71
2022/05/03 08:00:49;;;;;;;4.18;2.42;;;;;;;21.19;26.16;101431.13;5080369;28;20067;-70
2022/05/03 08:03:16;;;;;;;4.32;2.55;;;;;;;21.23;26.10;101426.19;5053245;28;20048;-71
2022/05/03 08:05:43;;;;;;;4.78;2.42;;;;;;;21.26;25.96;101423.06;5067827;28;20044;-71
2022/05/03 08:08:10;;;;;;;4.65;2.90;;;;;;;21.30;26.09;101426.41;5079524;28;20048;-70
2022/05/03 08:10:36;;;;;;;5.15;2.60;;;;;;;21.36;26.37;101425.75;5055972;28;20451;-70
2022/05/03 08:13:03;;;;;;;4.00;2.70;;;;;;;21.38;26.29;101440.28;5052415;28;20295;-70
2022/05/03 08:15:30;;;;;;;4.57;2.60;;;;;;;21.42;26.05;101434.28;5062393;28;20098;-70
2022/05/03 08:17:57;;;;;;;6.32;3.00;;;;;;;21.47;25.64;101437.44;5064493;28;20049;-71
2022/05/03 08:20:23;;;;;;;4.20;2.63;;;;;;;21.51;25.82;101438.84;5066591;28;20413;-69
2022/05/03 08:22:57;;;;;;;3.85;2.20;;;;;;;21.53;25.90;101439.56;5057881;28;20055;-70
2022/05/03 08:25:23;;;;;;;4.32;2.40;;;;;;;21.56;25.30;101444.78;5081650;28;20515;-69
2022/05/03 08:27:50;;;;;;;4.05;2.17;;;;;;;21.59;25.38;101447.22;5076400;28;20106;-71
2022/05/03 08:30:17;;;;;;;3.65;2.03;;;;;;;21.63;25.66;101436.72;5059867;28;20057;-71
2022/05/03 08:32:43;;;;;;;3.33;1.92;;;;;;;21.69;25.66;101440.72;5078197;28;20533;-71
2022/05/03 08:35:10;;;;;;;4.03;2.33;;;;;;;21.76;25.64;101445.47;5059617;28;20103;-71
2022/05/03 08:43:08;;;;;;;3.60;2.10;;;;;;;21.97;25.16;101450.69;5070078;28;20101;-71
2022/05/03 08:45:35;;;;;;;3.25;1.90;;;;;;;22.06;24.77;101449.72;5059101;28;20110;-70
2022/05/03 08:48:02;;;;;;;3.63;1.83;;;;;;;22.12;24.61;101450.94;5055943;28;20060;-70
2022/05/03 08:50:32;;;;;;;3.17;1.85;;;;;;;22.19;24.89;101447.34;5075181;28;20048;-71
2022/05/03 08:53:03;;;;;;;4.03;2.10;;;;;;;22.25;24.36;101445.81;5068350;28;20417;-70
2022/05/03 08:55:29;;;;;;;3.70;2.20;;;;;;;22.28;24.02;101453.81;5067894;28;20082;-72
2022/05/03 08:57:56;;;;;;;4.38;2.20;;;;;;;22.32;24.33;101453.31;5069221;28;20562;-70
2022/05/03 09:00:24;;;;;;;4.10;2.25;;;;;;;22.37;23.76;101455.59;5066517;28;20045;-72
2022/05/03 09:02:53;;;;;;;4.65;2.67;;;;;;;22.44;23.49;101458.56;5054367;28;20468;-72
2022/05/03 09:05:22;;;;;;;3.67;2.13;;;;;;;22.47;23.32;101455.47;5076390;28;20493;-72
2022/05/03 09:07:53;;;;;;;4.68;2.33;;;;;;;22.50;22.99;101457.91;5053372;28;20052;-71
2022/05/03 09:10:26;;;;;;;3.20;1.85;;;;;;;22.50;23.02;101456.00;5077674;28;20044;-72
2022/05/03 09:12:55;;;;;;;4.43;2.08;;;;;;;22.48;22.76;101451.69;5051800;28;20052;-70
2022/05/03 09:15:30;;;;;;;3.65;2.13;;;;;;;22.51;21.98;101465.16;5081492;28;20063;-70
2022/05/03 09:17:58;;;;;;;3.30;1.90;;;;;;;22.47;22.59;101456.34;5070626;28;20526;-70
2022/05/03 09:26:26;;;;;;;4.18;2.10;;;;;;;22.55;22.76;101470.22;5070347;28;20462;-71
2022/05/03 09:28:53;;;;;;;4.97;2.23;;;;;;;22.56;23.25;101460.03;5068531;28;20048;-71
2022/05/03 09:31:34;;;;;;;4.10;2.05;;;;;;;22.69;22.08;101455.75;5078401;28;20045;-71
2022/05/03 09:34:04;;;;;;;4.53;2.15;;;;;;;22.74;22.69;101452.50;5061186;28;20694;-72
2022/05/03 09:36:45;;;;;;;4.63;2.38;;;;;;;22.77;22.39;101460.47;5078193;28;20048;-71
2022/05/03 09:39:34;;;;;;;3.95;2.20;;;;;;;22.77;22.81;101453.03;5061367;28;20125;-71
2022/05/03 09:42:20;;;;;;;4.07;2.13;;;;;;;22.87;22.43;101454.81;5064632;28;20056;-71
2022/05/03 09:44:50;;;;;;;4.32;2.60;;;;;;;22.85;22.43;101452.22;5052583;28;20056;-71
2022/05/03 09:47:18;;;;;;;4.80;2.05;;;;;;;22.88;22.63;101454.66;5063072;28;20199;-72
2022/05/03 09:49:47;;;;;;;4.07;2.13;;;;;;;22.96;22.72;101451.03;5056300;28;20114;-71
2022/05/03 09:52:31;;;;;;;3.42;2.13;;;;;;;23.03;21.73;101443.78;5078595;28;20432;-71
2022/05/03 09:55:06;;;;;;;3.08;1.60;;;;;;;23.02;22.45;101453.13;5079047;28;20078;-72
2022/05/03 09:57:39;;;;;;;3.70;1.90;;;;;;;23.13;22.39;101447.28;5054793;28;20090;-72
2022/05/03 10:00:09;;;;;;;4.70;2.40;;;;;;;23.15;22.18;101446.06;5085437;28;20742;-71
2022/05/03 10:02:40;;;;;;;3.35;2.03;;;;;;;23.21;22.37;101455.63;5058711;28;20101;-71
2022/05/03 10:05:13;;;;;;;4.72;2.53;;;;;;;23.24;22.09;101448.84;5065199;28;20144;-71
2022/05/03 10:07:43;;;;;;;4.13;2.40;;;;;;;23.28;22.98;101441.94;5053240;28;20155;-71
2022/05/03 10:10:11;;;;;;;4.90;2.30;;;;;;;23.35;22.47;101440.22;5051615;28;20060;-71
2022/05/03 10:12:38;;;;;;;3.20;2.10;;;;;;;23.42;22.66;101444.03;5071974;28;20096;-72
2022/05/03 10:15:05;;;;;;;4.30;2.30;;;;;;;23.51;22.65;101446.66;5064471;28;20123;-71
2022/05/03 10:20:39;;;;;;;3.53;2.15;;;;;;;23.72;22.58;101437.81;5069087;28;20088;-71
2022/05/03 10:23:20;;;;;;;3.60;2.10;;;;;;;23.83;22.67;101434.72;5060956;28;20068;-72
2022/05/03 10:25:46;;;;;;;4.72;2.40;;;;;;;23.92;22.46;101435.56;5051692;28;20549;-72
2022/05/03 10:28:14;;;;;;;3.70;1.77;;;;;;;24.05;22.19;101432.28;5072522;28;20045;-71
2022/05/03 10:31:04;;;;;;;3.45;1.98;;;;;;;24.18;21.99;101435.34;5061032;28;20049;-72
2022/05/03 10:33:30;;;;;;;4.43;2.20;;;;;;;24.29;22.37;101434.16;5050824;28;20051;-71
2022/05/03 10:35:59;;;;;;;3.50;2.10;;;;;;;24.45;22.51;101428.56;5053481;28;20101;-72
2022/05/03 10:38:35;;;;;;;4.35;2.25;;;;;;;24.59;22.13;101431.44;5083825;28;20052;-71
2022/05/03 10:41:04;;;;;;;3.22;1.75;;;;;;;24.67;22.48;101427.75;5075005;28;20571;-71
2022/05/03 10:43:33;;;;;;;4.55;2.03;;;;;;;24.83;21.89;101435.16;5055580;28;20053;-72
2022/05/03 10:46:25;;;;;;;3.35;1.92;;;;;;;24.92;21.54;101434.09;5056568;28;20057;-72
2022/05/03 10:49:04;;;;;;;3.80;2.38;;;;;;;25.07;21.12;101425.84;5052967;28;20052;-72
2022/05/03 10:51:32;;;;;;;4.18;2.20;;;;;;;25.17;21.82;101418.13;5054088;28;20101;-72
2022/05/03 10:54:00;;;;;;;3.67;2.38;;;;;;;25.25;21.29;101421.72;5064825;28;20102;-72
2022/05/03 10:56:26;;;;;;;3.97;2.28;;;;;;;25.33;21.49;101423.59;5088297;28;20048;-72
2022/05/03 10:59:07;;;;;;;4.50;2.45;;;;;;;25.46;20.52;101422.94;5061552;28;20105;-72
2022/05/03 11:01:53;;;;;;;3.67;2.40;;;;;;;25.51;20.76;101412.16;5056880;28;20049;-72
2022/05/03 11:04:20;;;;;;;3.67;2.20;;;;;;;25.57;21.51;101406.72;5071448;28;20053;-72
2022/05/03 11:06:50;;;;;;;5.32;2.60;;;;;;;25.66;21.45;101408.41;5065227;28;20095;-72
2022/05/03 11:09:31;;;;;;;5.28;2.97;;;;;;;25.77;21.19;101407.97;5059085;28;20053;-72
2022/05/03 11:12:00;;;;;;;4.53;2.88;;;;;;;25.85;21.32;101409.81;5053896;28;20048;-71
2022/05/03 11:14:27;;;;;;;5.05;2.70;;;;;;;25.90;20.74;101404.53;5059570;28;20106;-72
2022/05/03 11:17:04;;;;;;;4.72;2.35;;;;;;;26.04;20.24;101408.38;5058206;28;20049;-72
2022/05/03 11:19:49;;;;;;;4.15;2.72;;;;;;;26.09;20.76;101400.34;5057653;28;20102;-72
2022/05/03 11:22:18;;;;;;;4.00;2.53;;;;;;;26.13;20.60;101398.88;5065517;28;20102;-72
2022/05/03 11:24:48;;;;;;;4.03;2.88;;;;;;;26.23;20.41;101401.38;5064564;28;20044;-72
2022/05/03 11:27:16;;;;;;;4.32;3.17;;;;;;;26.29;20.83;101393.16;5053543;28;20070;-72
2022/05/03 11:29:47;;;;;;;4.53;2.80;;;;;;;26.33;20.21;101394.53;5063736;28;20068;-72
2022/05/03 11:32:15;;;;;;;4.30;2.67;;;;;;;26.40;20.31;101387.13;5066551;28;20037;-72
2022/05/03 11:34:43;;;;;;;5.13;2.88;;;;;;;26.45;19.95;101389.31;5054506;28;20094;-72
2022/05/03 11:37:10;;;;;;;4.18;2.90;;;;;;;26.49;20.13;101385.97;5085287;28;20384;-72
2022/05/03 11:39:40;;;;;;;4.57;2.95;;;;;;;26.57;19.30;101385.00;5059229;28;20090;-72
2022/05/03 11:42:10;;;;;;;5.43;3.13;;;;;;;26.57;18.81;101386.91;5053717;28;20470;-72
2022/05/03 11:44:43;;;;;;;4.13;2.90;;;;;;;26.57;19.39;101384.13;5061049;28;20634;-72
2022/05/03 11:47:14;;;;;;;4.82;3.00;;;;;;;26.53;19.04;101392.84;5071923;28;20127;-71
2022/05/03 11:49:43;;;;;;;4.30;2.72;;;;;;;26.53;19.16;101380.84;5058427;28;20048;-71
2022/05/03 11:55:58;;;;;;;4.88;2.67;;;;;;;26.44;19.33;101373.66;5068812;28;20052;-75
2022/05/03 11:58:01;;;;;;;5.00;2.67;;;;;;;26.36;18.62;101374.63;5070115;28;20360;-71
2022/05/03 12:00:28;;;;;;;5.05;2.95;;;;;;;26.33;18.91;101371.38;5064895;28;20055;-71
2022/05/03 12:02:59;;;;;;;5.22;2.95;;;;;;;26.29;17.64;101370.03;5095361;28;20056;-71
2022/05/03 12:05:26;;;;;;;4.15;2.92;;;;;;;26.20;18.28;101355.31;5060411;28;20048;-71
2022/05/03 12:07:55;;;;;;;5.32;3.08;;;;;;;26.14;18.47;101356.94;5055153;28;20406;-71
2022/05/03 12:10:37;;;;;;;3.33;2.53;;;;;;;26.08;18.45;101348.50;5062863;28;20052;-71
2022/05/03 12:13:12;;;;;;;4.70;2.75;;;;;;;26.02;18.68;101349.28;5071621;28;20417;-71
2022/05/03 12:15:43;;;;;;;4.40;2.55;;;;;;;25.96;19.43;101344.44;5055086;28;20057;-71
2022/05/03 12:18:18;;;;;;;6.03;2.92;;;;;;;25.98;19.19;101346.00;5064153;28;20056;-71
2022/05/03 12:20:54;;;;;;;4.15;2.55;;;;;;;25.98;18.70;101347.91;5064006;28;20160;-71
2022/05/03 12:23:25;;;;;;;5.97;3.20;;;;;;;25.95;19.15;101351.94;5061335;28;20037;-71
2022/05/03 12:25:57;;;;;;;4.50;3.22;;;;;;;25.92;18.75;101354.25;5071385;28;20052;-71
2022/05/03 12:28:38;;;;;;;4.93;3.17;;;;;;;25.91;18.08;101349.75;5059655;28;20074;-71
2022/05/03 12:31:06;;;;;;;4.32;3.28;;;;;;;25.86;18.48;101339.16;5070664;28;20052;-71
2022/05/03 12:33:38;;;;;;;6.63;3.08;;;;;;;25.84;18.46;101340.44;5063921;28;20505;-71